Time;durP1;ratioP1;P1;durP2;ratioP2;P2;SDS_P1;SDS_P2;PMS_P1;PMS_P2;Temp;Humidity;BMP_temperature;BMP_pressure;BME280_temperature;BME280_humidity;BME280_pressure;Samples;Min_cycle;Max_cycle;Signal;HPM_P1;HPM_P2
2023/01/20 00:00:30;;;;;;;12.57;7.05;;;0.10;99.90;;;;;;5070385;28;20124;-48
2023/01/20 00:02:56;;;;;;;13.73;6.85;;;0.00;99.90;;;;;;5070018;28;20040;-49
2023/01/20 00:05:22;;;;;;;13.38;6.88;;;0.30;99.90;;;;;;5071043;28;20028;-52
2023/01/20 00:07:47;;;;;;;15.38;6.28;;;0.30;99.90;;;;;;5069124;28;20037;-50
2023/01/20 00:10:13;;;;;;;13.10;6.63;;;-0.10;99.90;;;;;;5071051;28;20040;-49
2023/01/20 00:12:39;;;;;;;11.90;6.40;;;0.10;99.90;;;;;;5070895;28;20384;-47
2023/01/20 00:15:06;;;;;;;10.38;6.00;;;0.20;99.90;;;;;;5077830;28;20082;-48
2023/01/20 00:17:31;;;;;;;12.27;6.32;;;0.20;99.90;;;;;;5070530;28;20091;-46
2023/01/20 00:19:57;;;;;;;11.75;6.45;;;0.20;99.90;;;;;;5070894;28;20131;-48
2023/01/20 00:22:23;;;;;;;13.48;6.95;;;-0.20;99.90;;;;;;5069065;28;20045;-50
2023/01/20 00:24:48;;;;;;;13.13;6.40;;;-0.30;99.90;;;;;;5070762;28;20119;-47
2023/01/20 00:27:15;;;;;;;10.90;6.35;;;-0.10;99.90;;;;;;5070145;28;20464;-50
2023/01/20 00:29:43;;;;;;;17.10;7.45;;;0.10;99.90;;;;;;5070748;28;20399;-47
2023/01/20 00:32:10;;;;;;;12.77;7.25;;;0.10;99.90;;;;;;5070527;28;20049;-52
2023/01/20 00:34:36;;;;;;;14.43;6.90;;;-0.30;99.90;;;;;;5070823;28;20041;-50
2023/01/20 00:37:01;;;;;;;14.05;7.47;;;-0.30;99.90;;;;;;5068821;28;20044;-50
2023/01/20 00:39:27;;;;;;;12.00;7.10;;;-0.30;99.90;;;;;;5070328;28;20138;-47
2023/01/20 00:41:53;;;;;;;10.07;5.40;;;0.10;99.90;;;;;;5068893;28;20373;-46
2023/01/20 00:44:18;;;;;;;12.50;6.70;;;-0.20;99.90;;;;;;5070212;28;20062;-50
2023/01/20 00:46:44;;;;;;;13.10;7.00;;;-0.40;99.90;;;;;;5069121;28;20032;-51
2023/01/20 00:49:10;;;;;;;16.38;7.88;;;0.10;99.90;;;;;;5070518;28;20530;-49
2023/01/20 00:51:36;;;;;;;14.63;7.75;;;-0.30;99.90;;;;;;5072015;28;20090;-48
2023/01/20 00:54:02;;;;;;;15.20;7.88;;;-0.10;99.90;;;;;;5070195;28;20075;-49
2023/01/20 00:56:28;;;;;;;15.55;8.35;;;0.30;99.90;;;;;;5070774;28;20629;-51
2023/01/20 00:58:56;;;;;;;25.00;9.63;;;-0.10;99.90;;;;;;5081506;28;20115;-47
2023/01/20 01:01:23;;;;;;;43.72;13.38;;;-0.10;99.90;;;;;;5068503;28;20110;-48
2023/01/20 01:03:49;;;;;;;32.00;11.85;;;0.30;99.90;;;;;;5070112;28;20534;-51
2023/01/20 01:06:16;;;;;;;22.23;11.48;;;0.50;99.90;;;;;;5070523;28;20046;-50
2023/01/20 01:08:43;;;;;;;24.67;12.10;;;-0.10;99.90;;;;;;5075711;28;20096;-47
2023/01/20 01:11:10;;;;;;;31.27;13.88;;;0.00;99.90;;;;;;5072755;28;20028;-49
2023/01/20 01:13:37;;;;;;;27.90;12.95;;;0.20;99.90;;;;;;5069838;28;20041;-47
2023/01/20 01:16:04;;;;;;;29.83;14.23;;;0.30;99.90;;;;;;5069959;28;20062;-50
2023/01/20 01:18:30;;;;;;;30.63;13.48;;;0.10;99.90;;;;;;5070135;28;20050;-50
2023/01/20 01:20:56;;;;;;;27.48;13.75;;;0.00;99.90;;;;;;5068401;28;20059;-48
2023/01/20 01:23:21;;;;;;;26.88;12.75;;;0.20;99.90;;;;;;5069926;28;20083;-49
2023/01/20 01:25:47;;;;;;;28.17;14.32;;;0.70;99.90;;;;;;5069581;28;20072;-49
2023/01/20 01:28:13;;;;;;;29.60;12.95;;;0.20;99.90;;;;;;5074595;28;20036;-48
2023/01/20 01:30:39;;;;;;;29.60;13.40;;;0.70;99.90;;;;;;5074596;28;20036;-51
2023/01/20 01:33:05;;;;;;;26.58;12.65;;;0.10;99.90;;;;;;5079486;28;20063;-49
2023/01/20 01:35:30;;;;;;;26.27;13.45;;;0.70;99.90;;;;;;5069442;28;20068;-49
2023/01/20 01:37:56;;;;;;;25.27;12.15;;;0.50;99.90;;;;;;5067091;28;20518;-47
2023/01/20 01:40:22;;;;;;;26.70;12.48;;;0.60;99.90;;;;;;5069708;28;20120;-47
2023/01/20 01:42:48;;;;;;;25.25;12.35;;;0.70;99.90;;;;;;5069702;28;20032;-50
2023/01/20 01:45:17;;;;;;;30.02;13.32;;;0.40;99.90;;;;;;5069788;28;20072;-50
2023/01/20 01:47:52;;;;;;;27.17;12.63;;;0.60;99.90;;;;;;5069781;28;20036;-49
2023/01/20 01:50:24;;;;;;;28.92;12.05;;;0.10;99.90;;;;;;5069665;28;20511;-50
2023/01/20 01:52:52;;;;;;;31.58;13.48;;;0.70;99.90;;;;;;5069496;28;20110;-50
2023/01/20 01:55:21;;;;;;;26.13;12.13;;;0.50;99.90;;;;;;5069746;28;20047;-48
2023/01/20 01:57:49;;;;;;;30.90;11.88;;;0.70;99.90;;;;;;5068826;28;20037;-52
2023/01/20 02:00:14;;;;;;;28.38;12.10;;;0.60;99.90;;;;;;5068057;28;20072;-50
2023/01/20 02:02:42;;;;;;;31.83;13.45;;;0.10;99.90;;;;;;5069613;28;20075;-50
2023/01/20 02:05:09;;;;;;;30.35;12.63;;;0.70;99.90;;;;;;5068107;28;20044;-47
2023/01/20 02:07:35;;;;;;;28.83;12.88;;;0.10;99.90;;;;;;5073120;28;20063;-53
2023/01/20 02:10:01;;;;;;;28.50;12.60;;;0.40;99.90;;;;;;5069749;28;20487;-49
2023/01/20 02:12:28;;;;;;;32.78;14.10;;;0.80;99.90;;;;;;5073637;28;20044;-49
2023/01/20 02:14:56;;;;;;;31.42;14.02;;;0.10;99.90;;;;;;5068621;28;20041;-47
2023/01/20 02:17:31;;;;;;;32.08;13.95;;;0.40;99.90;;;;;;5069605;28;20048;-48
2023/01/20 02:20:36;;;;;;;35.45;14.23;;;0.30;99.90;;;;;;5068268;28;20044;-49
2023/01/20 02:23:31;;;;;;;25.52;12.25;;;0.20;99.90;;;;;;5067568;28;20044;-48
2023/01/20 02:26:06;;;;;;;;;;;0.50;99.90;;;;;;5071742;28;20044;-52
2023/01/20 02:28:37;;;;;;;26.98;11.73;;;0.80;99.90;;;;;;5072951;28;20429;-51
2023/01/20 02:31:24;;;;;;;31.25;12.73;;;0.70;99.90;;;;;;5072010;28;20043;-52
2023/01/20 02:34:16;;;;;;;29.85;12.95;;;0.50;99.90;;;;;;5078394;28;20716;-52
2023/01/20 02:37:04;;;;;;;33.03;13.95;;;0.50;99.90;;;;;;5072328;28;20032;-46
2023/01/20 02:40:10;;;;;;;27.35;12.52;;;0.80;99.90;;;;;;5075298;28;20090;-50
2023/01/20 02:42:44;;;;;;;33.83;14.02;;;0.10;99.90;;;;;;5072531;28;20059;-51
2023/01/20 02:45:35;;;;;;;36.13;13.90;;;0.80;99.90;;;;;;5073992;28;20048;-47
2023/01/20 02:48:15;;;;;;;34.00;13.20;;;0.20;99.90;;;;;;5079171;28;20392;-48
2023/01/20 02:51:06;;;;;;;34.95;13.52;;;0.40;99.90;;;;;;5071460;28;20391;-50
2023/01/20 02:53:43;;;;;;;31.85;13.48;;;0.10;99.90;;;;;;5071554;28;20056;-47
2023/01/20 02:56:11;;;;;;;34.55;13.35;;;0.10;99.90;;;;;;5072220;28;20503;-51
2023/01/20 02:58:55;;;;;;;33.30;13.18;;;0.00;99.90;;;;;;5070979;28;20040;-50
2023/01/20 03:01:30;;;;;;;30.10;13.00;;;0.60;99.90;;;;;;5072365;28;20037;-48
2023/01/20 03:04:00;;;;;;;34.00;13.88;;;0.10;99.90;;;;;;5072190;28;20047;-50
2023/01/20 03:06:31;;;;;;;33.75;14.27;;;0.60;99.90;;;;;;5070503;28;20045;-49
2023/01/20 03:08:59;;;;;;;30.80;13.10;;;0.80;99.90;;;;;;5071816;28;20490;-46
2023/01/20 03:11:26;;;;;;;35.30;14.82;;;0.80;99.90;;;;;;5072466;28;20081;-50
2023/01/20 03:13:58;;;;;;;34.33;14.75;;;0.00;99.90;;;;;;5072179;28;20098;-49
2023/01/20 03:16:26;;;;;;;40.00;14.85;;;0.10;99.90;;;;;;5071772;28;20040;-51
2023/01/20 03:18:54;;;;;;;32.95;13.35;;;0.70;99.90;;;;;;5080018;28;20098;-47
2023/01/20 03:21:20;;;;;;;32.90;13.40;;;0.70;99.90;;;;;;5078184;28;20058;-50
2023/01/20 03:23:50;;;;;;;33.28;13.55;;;0.80;99.90;;;;;;5078115;28;20055;-50
2023/01/20 03:26:18;;;;;;;38.42;15.60;;;0.10;99.90;;;;;;5071266;28;20483;-48
2023/01/20 03:28:45;;;;;;;35.22;14.23;;;0.60;99.90;;;;;;5071138;28;20039;-50
2023/01/20 03:31:28;;;;;;;36.30;14.70;;;0.10;99.90;;;;;;5070242;28;20047;-50
2023/01/20 03:33:57;;;;;;;42.58;16.63;;;0.30;99.90;;;;;;5071444;28;20044;-49
2023/01/20 03:36:26;;;;;;;39.33;15.48;;;0.00;99.90;;;;;;5077217;28;20468;-48
2023/01/20 03:38:54;;;;;;;41.17;16.15;;;0.20;99.90;;;;;;5072418;28;20102;-50
2023/01/20 03:41:32;;;;;;;40.80;15.75;;;0.70;99.90;;;;;;5071502;28;20064;-50
2023/01/20 03:44:16;;;;;;;37.38;15.25;;;0.10;99.90;;;;;;5070364;28;20380;-49
2023/01/20 03:46:51;;;;;;;;;;;0.10;99.90;;;;;;5070933;28;20048;-47
2023/01/20 03:49:34;;;;;;;36.28;15.48;;;0.30;99.90;;;;;;5071490;28;20368;-46
2023/01/20 03:52:10;;;;;;;39.90;16.35;;;0.70;99.90;;;;;;5068920;28;20087;-48
2023/01/20 03:55:04;;;;;;;38.22;15.73;;;0.70;99.90;;;;;;5071207;28;20044;-50
2023/01/20 03:57:50;;;;;;;42.67;15.98;;;0.20;99.90;;;;;;5070173;28;20059;-48
2023/01/20 04:00:16;;;;;;;40.28;15.25;;;0.10;99.90;;;;;;5070575;28;20085;-52
2023/01/20 04:02:42;;;;;;;40.95;15.50;;;0.10;99.90;;;;;;5069725;28;20506;-49
2023/01/20 04:05:09;;;;;;;40.45;16.52;;;0.20;99.90;;;;;;5071161;28;20041;-49
2023/01/20 04:07:38;;;;;;;39.65;16.90;;;0.20;99.90;;;;;;5076383;28;20430;-51
2023/01/20 04:10:10;;;;;;;38.63;16.33;;;0.10;99.90;;;;;;5070773;28;20046;-48
2023/01/20 04:12:35;;;;;;;41.55;16.95;;;0.50;99.90;;;;;;5069931;28;20040;-48
2023/01/20 04:15:01;;;;;;;39.22;16.38;;;0.70;99.90;;;;;;5070845;28;20043;-53
2023/01/20 04:17:28;;;;;;;40.70;16.65;;;0.80;99.90;;;;;;5070609;28;20491;-50
2023/01/20 04:19:54;;;;;;;45.60;18.55;;;0.50;99.90;;;;;;5070958;28;20520;-50
2023/01/20 04:22:37;;;;;;;39.35;17.08;;;0.40;99.90;;;;;;5070461;28;20135;-49
2023/01/20 04:25:19;;;;;;;47.20;17.60;;;0.40;99.90;;;;;;5071334;28;20049;-49
2023/01/20 04:27:45;;;;;;;46.58;18.02;;;0.60;99.90;;;;;;5071038;28;20299;-50
2023/01/20 04:30:12;;;;;;;46.55;18.27;;;0.90;99.90;;;;;;5070471;28;20468;-50
2023/01/20 04:32:38;;;;;;;38.50;17.90;;;0.80;99.90;;;;;;5068919;28;20068;-50
2023/01/20 04:35:04;;;;;;;42.20;17.73;;;0.80;99.90;;;;;;5070602;28;20079;-49
2023/01/20 04:37:30;;;;;;;44.33;17.92;;;0.20;99.90;;;;;;5069378;28;20040;-52
2023/01/20 04:39:55;;;;;;;45.00;18.35;;;0.20;99.90;;;;;;5071930;28;20628;-51
2023/01/20 04:42:21;;;;;;;40.00;17.15;;;1.70;99.90;;;;;;5071601;28;20040;-48
2023/01/20 04:44:47;;;;;;;41.58;16.95;;;0.60;99.90;;;;;;5070452;28;20040;-49
2023/01/20 04:47:12;;;;;;;44.75;17.85;;;0.10;99.90;;;;;;5071036;28;20036;-50
2023/01/20 04:49:38;;;;;;;41.65;16.52;;;0.20;99.90;;;;;;5070460;28;20040;-50
2023/01/20 04:52:04;;;;;;;45.15;17.83;;;0.80;99.90;;;;;;5070672;28;20055;-49
2023/01/20 04:54:30;;;;;;;47.08;17.63;;;0.80;99.90;;;;;;5070545;28;20395;-51
2023/01/20 04:56:55;;;;;;;47.05;17.83;;;0.10;99.90;;;;;;5069872;28;20037;-52
2023/01/20 04:59:21;;;;;;;41.10;16.88;;;0.10;99.90;;;;;;5070414;28;20123;-49
2023/01/20 05:01:47;;;;;;;43.42;17.80;;;0.20;99.90;;;;;;5072377;28;20105;-52
2023/01/20 05:04:12;;;;;;;50.85;19.27;;;0.50;99.90;;;;;;5079832;28;20036;-51
2023/01/20 05:06:41;;;;;;;45.00;18.17;;;0.20;99.90;;;;;;5070971;28;20085;-47
2023/01/20 05:09:12;;;;;;;51.00;19.60;;;0.50;99.90;;;;;;5070616;28;20052;-48
2023/01/20 05:11:37;;;;;;;45.33;19.05;;;0.60;99.90;;;;;;5076434;28;20039;-49
2023/01/20 05:14:03;;;;;;;49.15;19.10;;;0.20;99.90;;;;;;5069789;28;20067;-51
2023/01/20 05:16:30;;;;;;;52.40;19.35;;;0.40;99.90;;;;;;5068911;28;20036;-48
2023/01/20 05:18:56;;;;;;;49.67;19.00;;;0.80;99.90;;;;;;5070205;28;20066;-48
2023/01/20 05:21:22;;;;;;;48.88;19.55;;;1.60;99.90;;;;;;5068104;28;20045;-49
2023/01/20 05:23:48;;;;;;;53.10;20.90;;;0.30;99.90;;;;;;5068411;28;20548;-47
2023/01/20 05:26:14;;;;;;;55.58;20.67;;;0.20;99.90;;;;;;5068443;28;20075;-53
2023/01/20 05:28:43;;;;;;;51.15;19.70;;;0.40;99.90;;;;;;5069843;28;20257;-46
2023/01/20 05:31:08;;;;;;;55.38;21.23;;;0.80;99.90;;;;;;5070418;28;20090;-47
2023/01/20 05:33:35;;;;;;;51.85;19.80;;;0.60;99.90;;;;;;5069106;28;20036;-49
2023/01/20 05:36:05;;;;;;;52.60;20.48;;;0.50;99.90;;;;;;5070176;28;20115;-50
2023/01/20 05:38:30;;;;;;;52.47;20.45;;;0.60;99.90;;;;;;5069505;28;20076;-49
2023/01/20 05:41:01;;;;;;;52.40;21.77;;;0.60;99.90;;;;;;5069923;28;20052;-48
2023/01/20 05:43:27;;;;;;;54.30;20.42;;;0.80;99.90;;;;;;5069719;28;20037;-48
2023/01/20 05:45:52;;;;;;;55.50;21.52;;;0.40;99.90;;;;;;5070467;28;20472;-47
2023/01/20 05:48:18;;;;;;;60.45;21.70;;;0.20;99.90;;;;;;5070532;28;20420;-49
2023/01/20 05:50:44;;;;;;;53.35;20.63;;;0.50;99.90;;;;;;5069969;28;20071;-52
2023/01/20 05:53:10;;;;;;;57.15;22.80;;;0.20;99.90;;;;;;5069294;28;20515;-50
2023/01/20 05:55:35;;;;;;;55.15;20.70;;;0.80;99.90;;;;;;5069839;28;20036;-50
2023/01/20 05:58:02;;;;;;;55.63;21.88;;;0.70;99.90;;;;;;5082541;28;20812;-50
2023/01/20 06:00:29;;;;;;;53.28;20.45;;;0.60;99.90;;;;;;5073592;28;20036;-48
2023/01/20 06:02:55;;;;;;;54.03;21.80;;;0.20;99.90;;;;;;5073412;28;20075;-51
2023/01/20 06:05:20;;;;;;;52.97;20.90;;;0.20;99.90;;;;;;5072308;28;20079;-52
2023/01/20 06:07:48;;;;;;;57.30;22.52;;;0.80;99.90;;;;;;5070213;28;20047;-51
2023/01/20 06:10:14;;;;;;;57.63;22.92;;;0.80;99.90;;;;;;5073238;28;20507;-50
2023/01/20 06:12:40;;;;;;;46.38;20.35;;;0.20;99.90;;;;;;5073074;28;20131;-47
2023/01/20 06:15:07;;;;;;;54.97;21.02;;;0.60;99.90;;;;;;5072012;28;20567;-48
2023/01/20 06:17:33;;;;;;;55.38;22.45;;;0.60;99.90;;;;;;5074543;28;20039;-47
2023/01/20 06:19:59;;;;;;;53.55;20.90;;;0.60;99.90;;;;;;5072238;28;20354;-51
2023/01/20 06:22:25;;;;;;;57.17;21.20;;;0.20;99.90;;;;;;5073065;28;20089;-47
2023/01/20 06:24:51;;;;;;;56.42;20.98;;;0.30;99.90;;;;;;5075007;28;20395;-50
2023/01/20 06:27:18;;;;;;;50.22;21.00;;;0.30;99.90;;;;;;5072790;28;20089;-47
2023/01/20 06:29:44;;;;;;;61.28;23.88;;;0.80;99.90;;;;;;5072834;28;20175;-51
2023/01/20 06:32:10;;;;;;;66.07;23.58;;;0.70;99.90;;;;;;5061741;28;20048;-47
2023/01/20 06:34:36;;;;;;;56.53;22.98;;;0.40;99.90;;;;;;5067321;28;20037;-51
2023/01/20 06:37:02;;;;;;;54.97;22.05;;;0.60;99.90;;;;;;5072914;28;20179;-50
2023/01/20 06:39:28;;;;;;;59.10;22.73;;;0.30;99.90;;;;;;5072626;28;20032;-48
2023/01/20 06:41:58;;;;;;;67.45;25.85;;;0.70;99.90;;;;;;5065532;28;20044;-49
2023/01/20 06:44:24;;;;;;;59.53;22.23;;;0.60;99.90;;;;;;5061606;28;20391;-51
2023/01/20 06:46:50;;;;;;;64.05;24.27;;;0.40;99.90;;;;;;5063141;28;20119;-49
2023/01/20 06:49:16;;;;;;;60.17;22.63;;;0.30;99.90;;;;;;5060116;28;20518;-47
2023/01/20 06:51:42;;;;;;;60.90;23.63;;;0.30;99.90;;;;;;5058763;28;20048;-49
2023/01/20 06:54:08;;;;;;;60.38;22.45;;;0.70;99.90;;;;;;5062441;28;20114;-52
2023/01/20 06:56:34;;;;;;;57.15;22.10;;;0.70;99.90;;;;;;5063902;28;20063;-50
2023/01/20 06:59:00;;;;;;;57.13;23.45;;;0.40;99.90;;;;;;5061895;28;20029;-48
2023/01/20 07:01:28;;;;;;;66.88;23.35;;;1.00;99.90;;;;;;5060078;28;20039;-52
2023/01/20 07:03:54;;;;;;;64.57;25.08;;;0.30;99.90;;;;;;5059537;28;20063;-47
2023/01/20 07:06:34;;;;;;;67.40;24.33;;;0.30;99.90;;;;;;5057370;28;20372;-50
2023/01/20 07:09:01;;;;;;;66.53;23.77;;;0.70;99.90;;;;;;5060697;28;20135;-49
2023/01/20 07:11:27;;;;;;;67.57;23.33;;;0.70;99.90;;;;;;5060680;28;20103;-47
2023/01/20 07:13:53;;;;;;;65.40;21.85;;;0.60;99.90;;;;;;5056999;28;20071;-48
2023/01/20 07:16:19;;;;;;;71.45;24.35;;;0.50;99.90;;;;;;5060575;28;20089;-48
2023/01/20 07:18:51;;;;;;;68.47;24.23;;;0.30;99.90;;;;;;5063205;28;20025;-50
2023/01/20 07:21:17;;;;;;;68.82;23.63;;;0.50;99.90;;;;;;5060074;28;20029;-48
2023/01/20 07:23:43;;;;;;;61.25;23.17;;;0.40;99.90;;;;;;5061887;28;20059;-49
2023/01/20 07:26:12;;;;;;;67.50;26.20;;;0.40;99.90;;;;;;5059987;28;20094;-49
2023/01/20 07:28:38;;;;;;;66.55;23.17;;;0.50;99.90;;;;;;5060437;28;20033;-50
2023/01/20 07:31:15;;;;;;;54.05;20.50;;;0.70;99.90;;;;;;5059773;28;20043;-50
2023/01/20 07:33:42;;;;;;;73.70;26.80;;;0.30;99.90;;;;;;5061055;28;20094;-47
2023/01/20 07:36:09;;;;;;;70.90;25.23;;;0.40;99.90;;;;;;5061519;28;20090;-49
2023/01/20 07:38:35;;;;;;;65.05;24.48;;;0.80;99.90;;;;;;5060643;28;20044;-48
2023/01/20 07:41:04;;;;;;;64.53;23.98;;;0.80;99.90;;;;;;5060570;28;20414;-46
2023/01/20 07:43:31;;;;;;;71.30;23.73;;;0.50;99.90;;;;;;5058528;28;20064;-49
2023/01/20 07:45:58;;;;;;;68.13;24.00;;;0.40;99.90;;;;;;5057218;28;20082;-50
2023/01/20 07:48:24;;;;;;;56.95;22.02;;;0.80;99.90;;;;;;5053402;28;20036;-50
2023/01/20 07:51:00;;;;;;;69.53;24.63;;;0.60;99.90;;;;;;5060430;28;20462;-52
2023/01/20 07:53:28;;;;;;;65.05;22.20;;;0.60;99.90;;;;;;5058384;28;20044;-50
2023/01/20 07:55:54;;;;;;;68.70;23.67;;;0.90;99.90;;;;;;5060278;28;20040;-47
2023/01/20 07:58:19;;;;;;;65.45;23.15;;;0.60;99.90;;;;;;5059442;28;20491;-48
2023/01/20 08:00:47;;;;;;;64.53;22.52;;;0.80;99.90;;;;;;5056746;28;20029;-48
2023/01/20 08:03:14;;;;;;;63.40;23.13;;;0.40;99.90;;;;;;5055598;28;20483;-48
2023/01/20 08:05:40;;;;;;;69.28;24.63;;;0.70;99.90;;;;;;5048946;28;20131;-50
2023/01/20 08:08:06;;;;;;;64.82;23.05;;;0.80;99.90;;;;;;5050407;28;20124;-50
2023/01/20 08:10:31;;;;;;;66.57;21.13;;;0.80;99.90;;;;;;5051907;28;20040;-48
2023/01/20 08:12:57;;;;;;;72.53;24.02;;;0.80;99.90;;;;;;5048666;28;20033;-47
2023/01/20 08:15:23;;;;;;;71.47;22.58;;;1.50;99.90;;;;;;5052658;28;20540;-49
2023/01/20 08:17:53;;;;;;;65.30;22.42;;;0.90;99.90;;;;;;5049892;28;20037;-50
2023/01/20 08:20:19;;;;;;;61.60;22.67;;;0.90;99.90;;;;;;5048561;28;20029;-49
2023/01/20 08:22:44;;;;;;;71.35;21.95;;;0.90;99.90;;;;;;5033884;28;20135;-47
2023/01/20 08:25:10;;;;;;;64.53;23.52;;;0.60;99.90;;;;;;5051031;28;20045;-50
2023/01/20 08:27:36;;;;;;;70.03;23.50;;;0.80;99.90;;;;;;5052729;28;20084;-50
2023/01/20 08:30:02;;;;;;;66.78;23.27;;;0.70;99.90;;;;;;5053116;28;20037;-51
2023/01/20 08:32:29;;;;;;;63.97;22.25;;;0.70;99.90;;;;;;5051083;28;20050;-50
2023/01/20 08:34:54;;;;;;;62.75;22.73;;;0.70;99.90;;;;;;5057303;28;20458;-50
2023/01/20 08:37:20;;;;;;;68.60;24.30;;;0.80;99.90;;;;;;5060571;28;20036;-48
2023/01/20 08:39:46;;;;;;;66.15;23.00;;;0.70;99.90;;;;;;5058960;28;20123;-50
2023/01/20 08:42:12;;;;;;;61.17;20.33;;;1.10;99.90;;;;;;5057023;28;20032;-50
2023/01/20 08:44:37;;;;;;;66.45;22.85;;;0.90;99.90;;;;;;5060052;28;20040;-52
2023/01/20 08:47:03;;;;;;;64.05;22.50;;;0.80;99.90;;;;;;5056543;28;20103;-48
2023/01/20 08:49:30;;;;;;;64.10;22.80;;;1.10;99.90;;;;;;5058769;28;20072;-47
2023/01/20 08:51:56;;;;;;;66.93;22.30;;;1.10;99.90;;;;;;5059444;28;20040;-49
2023/01/20 08:54:22;;;;;;;65.43;23.95;;;0.90;99.90;;;;;;5059888;28;20039;-50
2023/01/20 08:56:52;;;;;;;66.93;22.27;;;1.00;99.90;;;;;;5056259;28;20041;-49
2023/01/20 08:59:18;;;;;;;58.65;21.30;;;1.20;99.90;;;;;;5060150;28;20039;-51
2023/01/20 09:01:44;;;;;;;56.50;21.13;;;1.30;99.90;;;;;;5056479;28;20119;-49
2023/01/20 09:04:11;;;;;;;54.78;20.98;;;1.20;99.90;;;;;;5059142;28;20166;-48
2023/01/20 09:06:39;;;;;;;55.67;20.20;;;1.30;99.90;;;;;;5057650;28;20048;-50
2023/01/20 09:09:05;;;;;;;60.22;21.20;;;1.10;99.90;;;;;;5060093;28;20175;-48
2023/01/20 09:11:31;;;;;;;59.63;21.55;;;1.20;99.90;;;;;;5058553;28;20455;-49
2023/01/20 09:13:56;;;;;;;55.35;21.23;;;1.10;99.90;;;;;;5057324;28;20035;-50
2023/01/20 09:16:22;;;;;;;57.50;21.30;;;1.30;99.90;;;;;;5058355;28;20052;-51
2023/01/20 09:18:48;;;;;;;57.00;21.58;;;1.30;99.90;;;;;;5059467;28;20040;-48
2023/01/20 09:21:14;;;;;;;59.38;22.20;;;1.20;99.90;;;;;;5057552;28;20028;-47
2023/01/20 09:23:41;;;;;;;56.80;20.83;;;1.20;99.90;;;;;;5058935;28;20040;-50
2023/01/20 09:26:08;;;;;;;53.95;21.00;;;1.20;99.90;;;;;;5057452;28;20041;-49
2023/01/20 09:28:34;;;;;;;59.63;22.45;;;1.30;99.90;;;;;;5057727;28;20138;-51
2023/01/20 09:31:03;;;;;;;50.30;20.08;;;1.10;99.90;;;;;;5058822;28;20039;-47
2023/01/20 09:33:29;;;;;;;46.97;20.45;;;1.20;99.90;;;;;;5061715;28;20043;-51
2023/01/20 09:35:58;;;;;;;50.28;20.13;;;1.70;99.90;;;;;;5063569;28;20043;-50
2023/01/20 09:44:43;;;;;;;53.28;21.27;;;1.20;99.90;;;;;;5061306;28;20041;-50
2023/01/20 09:47:37;;;;;;;52.45;20.88;;;1.40;99.90;;;;;;5062236;28;20103;-49
2023/01/20 09:53:15;;;;;;;54.45;19.75;;;1.30;99.90;;;;;;5061618;28;20064;-51
2023/01/20 09:55:51;;;;;;;48.95;18.73;;;1.40;99.90;;;;;;5060739;28;20036;-51
2023/01/20 09:58:56;;;;;;;48.20;20.80;;;1.20;99.90;;;;;;5061579;28;20127;-49
2023/01/20 10:01:29;;;;;;;44.88;18.45;;;1.40;99.90;;;;;;4993263;28;20026;-47
2023/01/20 10:04:23;;;;;;;52.40;20.25;;;1.40;99.90;;;;;;5051742;28;20123;-51
2023/01/20 10:07:01;;;;;;;48.60;18.67;;;1.30;99.90;;;;;;5052480;28;20053;-52
2023/01/20 10:09:32;;;;;;;53.92;21.40;;;1.50;99.90;;;;;;5061170;28;20292;-50
2023/01/20 10:12:13;;;;;;;53.45;20.05;;;1.30;99.90;;;;;;5062416;28;20172;-50
2023/01/20 10:15:28;;;;;;;59.15;21.65;;;1.30;99.90;;;;;;5060256;28;20119;-50
2023/01/20 10:18:26;;;;;;;55.47;19.73;;;1.30;99.90;;;;;;5053317;28;20045;-51
2023/01/20 10:21:01;;;;;;;53.33;20.02;;;1.30;99.90;;;;;;5058274;28;20051;-50
2023/01/20 10:23:50;;;;;;;55.88;20.55;;;1.40;99.90;;;;;;5055699;28;20048;-48
2023/01/20 10:26:29;;;;;;;53.97;21.30;;;1.40;99.90;;;;;;5055820;28;20116;-49
2023/01/20 10:28:59;;;;;;;48.90;20.55;;;1.30;99.90;;;;;;5063085;28;20116;-46
2023/01/20 10:31:27;;;;;;;56.22;20.77;;;1.30;99.90;;;;;;5060476;28;20052;-48
2023/01/20 10:33:58;;;;;;;51.20;20.08;;;1.50;99.90;;;;;;5058059;28;20507;-49
2023/01/20 10:36:27;;;;;;;62.28;22.25;;;1.30;99.90;;;;;;5063030;28;20037;-48
2023/01/20 10:39:03;;;;;;;59.58;20.92;;;1.60;99.90;;;;;;5062959;28;20501;-49
2023/01/20 10:41:40;;;;;;;58.30;21.58;;;1.50;99.90;;;;;;5060459;28;20083;-49
2023/01/20 10:44:14;;;;;;;58.28;21.83;;;1.40;99.90;;;;;;5057300;28;20044;-48
2023/01/20 10:46:54;;;;;;;58.33;21.40;;;1.40;99.90;;;;;;5061949;28;20392;-53
2023/01/20 10:50:01;;;;;;;55.83;21.00;;;1.50;99.90;;;;;;5063442;28;20904;-52
2023/01/20 10:52:33;;;;;;;61.22;21.65;;;1.50;99.90;;;;;;5050522;28;20162;-51
2023/01/20 10:55:27;;;;;;;53.88;21.23;;;1.50;99.90;;;;;;5061984;28;20058;-49
2023/01/20 10:57:59;;;;;;;56.47;21.35;;;1.50;99.90;;;;;;5061005;28;20045;-51
2023/01/20 11:00:29;;;;;;;53.33;20.73;;;1.70;99.90;;;;;;5059918;28;20119;-50
2023/01/20 11:02:59;;;;;;;57.47;21.73;;;1.50;99.90;;;;;;5059279;28;20032;-49
2023/01/20 11:05:28;;;;;;;62.55;25.42;;;1.60;99.90;;;;;;5060721;28;20036;-51
2023/01/20 11:07:57;;;;;;;55.75;21.70;;;1.60;99.90;;;;;;5060203;28;20423;-49
2023/01/20 11:10:28;;;;;;;52.30;22.00;;;2.50;99.90;;;;;;5061342;28;20171;-49
2023/01/20 11:12:58;;;;;;;55.25;20.40;;;1.60;99.90;;;;;;5061737;28;20032;-51
2023/01/20 11:15:34;;;;;;;56.95;21.75;;;1.70;99.90;;;;;;5059177;28;20455;-47
2023/01/20 11:18:14;;;;;;;60.00;21.83;;;1.80;99.90;;;;;;5058721;28;20430;-49
2023/01/20 11:21:04;;;;;;;54.30;20.95;;;1.60;99.90;;;;;;5058192;28;20082;-48
2023/01/20 11:23:56;;;;;;;59.67;21.35;;;1.80;99.90;;;;;;5058627;28;20045;-50
2023/01/20 11:26:33;;;;;;;58.92;21.13;;;1.70;99.90;;;;;;5060654;28;20111;-50
2023/01/20 11:29:33;;;;;;;57.80;20.30;;;1.90;99.90;;;;;;5061014;28;20036;-48
2023/01/20 11:31:59;;;;;;;57.63;21.15;;;2.60;99.90;;;;;;5061498;28;20411;-48
2023/01/20 11:34:30;;;;;;;52.78;20.27;;;1.80;99.90;;;;;;5059373;28;20103;-51
2023/01/20 11:37:04;;;;;;;51.53;20.63;;;1.80;99.90;;;;;;5058749;28;20120;-50
2023/01/20 11:39:32;;;;;;;57.67;21.70;;;1.90;99.90;;;;;;5060408;28;20039;-49
2023/01/20 11:42:17;;;;;;;49.72;20.20;;;1.80;99.90;;;;;;5060090;28;20144;-49
2023/01/20 11:44:47;;;;;;;54.80;20.75;;;1.80;99.90;;;;;;5058118;28;20388;-49
2023/01/20 11:47:23;;;;;;;53.38;19.25;;;1.70;99.90;;;;;;5061529;28;20036;-50
2023/01/20 11:50:07;;;;;;;53.08;20.65;;;1.90;99.90;;;;;;5060140;28;20043;-50
2023/01/20 11:52:45;;;;;;;52.30;19.00;;;1.80;99.90;;;;;;5059216;28;20135;-49
2023/01/20 11:55:11;;;;;;;47.38;20.08;;;2.40;99.90;;;;;;5059700;28;20040;-51
2023/01/20 11:57:43;;;;;;;56.60;21.73;;;1.90;99.90;;;;;;5059371;28;20747;-47
2023/01/20 12:00:18;;;;;;;54.40;21.75;;;1.80;99.90;;;;;;5059157;28;20438;-48
2023/01/20 12:02:55;;;;;;;54.30;20.33;;;1.70;99.90;;;;;;5059374;28;20040;-48
2023/01/20 12:05:42;;;;;;;54.83;19.77;;;1.80;99.90;;;;;;5058460;28;20476;-52
2023/01/20 12:08:22;;;;;;;52.30;20.45;;;2.00;99.90;;;;;;5057265;28;20160;-50
2023/01/20 12:10:49;;;;;;;54.33;19.83;;;2.00;99.90;;;;;;5056399;28;20051;-48
2023/01/20 12:13:15;;;;;;;56.00;20.58;;;1.90;99.90;;;;;;5055351;28;20170;-48
2023/01/20 12:15:45;;;;;;;56.90;20.90;;;2.00;99.90;;;;;;5058311;28;20119;-50
2023/01/20 12:18:35;;;;;;;52.85;21.08;;;2.30;99.90;;;;;;5052754;28;20412;-47
2023/01/20 12:21:16;;;;;;;51.90;20.27;;;2.00;99.90;;;;;;5051291;28;20429;-51
2023/01/20 12:23:45;;;;;;;53.50;19.77;;;1.90;99.90;;;;;;5049529;28;20044;-47
2023/01/20 12:26:17;;;;;;;47.95;18.75;;;2.10;99.90;;;;;;5051538;28;20457;-51
2023/01/20 12:29:01;;;;;;;47.95;19.00;;;2.00;99.90;;;;;;5048687;28;20108;-52
2023/01/20 12:31:29;;;;;;;48.95;18.10;;;1.90;99.90;;;;;;5050685;28;20039;-49
2023/01/20 12:34:10;;;;;;;47.65;18.40;;;1.90;99.90;;;;;;5053902;28;20058;-50
2023/01/20 12:37:17;;;;;;;46.88;18.27;;;2.10;99.90;;;;;;5051135;28;20028;-48
2023/01/20 12:40:20;;;;;;;45.90;16.85;;;2.00;99.90;;;;;;5051640;28;20098;-50
2023/01/20 12:43:11;;;;;;;40.22;17.30;;;1.90;99.90;;;;;;5057481;28;20046;-51
2023/01/20 12:46:04;;;;;;;41.28;16.30;;;1.90;99.90;;;;;;5059581;28;20580;-52
2023/01/20 12:48:41;;;;;;;44.20;17.67;;;2.00;99.90;;;;;;5065231;28;20539;-50
2023/01/20 12:51:19;;;;;;;42.97;17.88;;;2.00;99.90;;;;;;5068325;28;20045;-51
2023/01/20 12:54:23;;;;;;;49.15;20.33;;;2.00;99.90;;;;;;5068082;28;20136;-50
2023/01/20 12:56:52;;;;;;;52.50;20.42;;;2.00;99.90;;;;;;5043351;28;20056;-48
2023/01/20 12:59:46;;;;;;;42.40;18.48;;;2.00;99.90;;;;;;5069713;28;20036;-51
2023/01/20 13:02:15;;;;;;;49.72;18.95;;;2.00;99.90;;;;;;5068644;28;20143;-49
2023/01/20 13:05:14;;;;;;;48.13;18.95;;;2.00;99.90;;;;;;5070526;28;20043;-49
2023/01/20 13:07:52;;;;;;;49.53;18.55;;;1.80;99.90;;;;;;5069422;28;20040;-51